createdAt,value
2022-11-18T00:00:23.600Z,23.57
2022-11-18T00:02:31.442Z,23.61
2022-11-18T00:04:37.210Z,23.77
2022-11-18T00:06:45.484Z,23.63
2022-11-18T00:08:55.072Z,23.90
2022-11-18T00:11:01.465Z,25.73
2022-11-18T00:13:19.512Z,25.46
2022-11-18T00:15:31.455Z,24.89
2022-11-18T00:17:37.454Z,23.25
2022-11-18T00:19:43.728Z,24.45
2022-11-18T00:21:50.437Z,23.75
2022-11-18T00:23:58.705Z,23.52
2022-11-18T00:26:09.406Z,24.97
2022-11-18T00:28:15.909Z,24.29
2022-11-18T00:30:23.052Z,23.85
2022-11-18T00:32:28.792Z,25.48
2022-11-18T00:34:35.394Z,24.82
2022-11-18T00:36:42.117Z,24.42
2022-11-18T00:38:48.446Z,25.34
2022-11-18T00:41:07.400Z,25.53
2022-11-18T00:43:10.405Z,26.21
2022-11-18T00:45:16.130Z,26.49
2022-11-18T00:47:22.635Z,25.99
2022-11-18T00:49:28.386Z,26.44
2022-11-18T00:51:34.054Z,25.83
2022-11-18T00:53:40.568Z,24.98
2022-11-18T00:55:46.893Z,25.07
2022-11-18T00:57:56.440Z,26.19
2022-11-18T01:00:09.931Z,26.95
2022-11-18T01:02:33.387Z,25.15
2022-11-18T01:04:39.164Z,26.32
2022-11-18T01:06:45.664Z,26.45
2022-11-18T01:08:51.458Z,24.22
2022-11-18T01:11:17.223Z,24.94
2022-11-18T01:13:26.023Z,24.49
2022-11-18T01:15:31.763Z,25.08
2022-11-18T01:17:45.614Z,23.80
2022-11-18T01:19:52.289Z,24.20
2022-11-18T01:22:09.916Z,24.88
2022-11-18T01:24:21.405Z,23.90
2022-11-18T01:26:27.977Z,23.48
2022-11-18T01:28:36.882Z,24.06
2022-11-18T01:30:45.869Z,25.67
2022-11-18T01:32:52.457Z,27.37
2022-11-18T01:34:58.382Z,27.09
2022-11-18T01:37:11.121Z,26.65
2022-11-18T01:39:17.775Z,27.44
2022-11-18T01:41:28.784Z,26.44
2022-11-18T01:43:53.803Z,24.84
2022-11-18T01:46:00.250Z,26.63
2022-11-18T01:48:23.424Z,27.97
2022-11-18T01:50:31.461Z,26.84
2022-11-18T01:52:41.704Z,26.31
2022-11-18T01:54:58.298Z,28.23
2022-11-18T01:57:17.292Z,27.62
2022-11-18T01:59:45.372Z,27.24
2022-11-18T02:01:54.064Z,26.96
2022-11-18T02:04:02.441Z,27.01
2022-11-18T02:06:19.806Z,25.87
2022-11-18T02:08:26.793Z,26.84
2022-11-18T02:10:33.341Z,27.53
2022-11-18T02:12:41.192Z,28.49
2022-11-18T02:14:51.842Z,29.15
2022-11-18T02:17:17.984Z,29.32
2022-11-18T02:20:06.174Z,27.51
2022-11-18T02:22:45.562Z,27.08
2022-11-18T02:25:10.082Z,27.10
2022-11-18T02:27:56.949Z,27.91
2022-11-18T02:30:09.983Z,28.72
2022-11-18T02:32:28.083Z,27.29
2022-11-18T02:34:54.108Z,26.95
2022-11-18T02:37:10.837Z,26.65
2022-11-18T02:39:26.790Z,28.38
2022-11-18T02:41:38.164Z,25.87
2022-11-18T02:43:54.276Z,26.05
2022-11-18T02:46:12.005Z,26.42
2022-11-18T02:48:29.595Z,26.37
2022-11-18T02:50:45.792Z,27.70
2022-11-18T04:35:23.501Z,22.13
2022-11-18T04:37:30.273Z,21.97
2022-11-18T04:39:35.959Z,22.20
2022-11-18T04:41:54.093Z,22.04
2022-11-18T04:44:00.670Z,22.64
2022-11-18T04:46:09.238Z,22.68
2022-11-18T04:48:14.946Z,22.83
2022-11-18T04:50:24.182Z,24.07
2022-11-18T04:52:32.480Z,23.51
2022-11-18T04:54:38.281Z,22.26
2022-11-18T04:56:49.399Z,22.88
2022-11-18T04:58:55.619Z,24.00
2022-11-18T05:01:01.329Z,24.91
2022-11-18T05:03:10.302Z,25.40
2022-11-18T05:05:16.178Z,25.96
2022-11-18T05:07:24.526Z,26.32
2022-11-18T05:09:32.498Z,23.81
2022-11-18T05:11:50.787Z,23.83
2022-11-18T05:13:57.245Z,23.68
2022-11-18T05:16:07.763Z,23.39
2022-11-18T05:18:19.193Z,23.56
2022-11-18T05:20:24.998Z,23.48
2022-11-18T05:22:40.432Z,23.99
2022-11-18T05:24:50.274Z,24.83
2022-11-18T05:26:57.882Z,24.08
2022-11-18T05:29:19.797Z,24.59
2022-11-18T05:31:38.121Z,25.82
2022-11-18T05:33:45.674Z,26.45
2022-11-18T05:35:55.551Z,26.40
2022-11-18T05:38:06.286Z,21.09
2022-11-18T05:40:17.497Z,21.42
2022-11-18T05:42:40.100Z,20.65
2022-11-18T05:44:45.781Z,20.97
2022-11-18T05:47:03.110Z,21.50
2022-11-18T05:49:13.987Z,22.21
2022-11-18T05:51:19.689Z,23.85
2022-11-18T05:53:35.267Z,22.05
2022-11-18T05:55:52.078Z,22.19
2022-11-18T05:57:58.180Z,22.39
2022-11-18T06:00:03.899Z,23.25
2022-11-18T06:02:30.496Z,23.03
2022-11-18T06:04:45.275Z,22.40
2022-11-18T06:06:57.784Z,22.82
2022-11-18T06:09:11.328Z,22.84
2022-11-18T06:11:23.160Z,23.68
2022-11-18T06:13:41.645Z,23.00
2022-11-18T06:15:49.507Z,24.59
2022-11-18T06:18:04.544Z,25.30
2022-11-18T06:20:13.295Z,26.27
2022-11-18T06:22:20.070Z,25.57
2022-11-18T06:24:29.271Z,26.46
2022-11-18T06:26:35.327Z,24.56
2022-11-18T06:28:44.385Z,24.88
2022-11-18T06:30:50.088Z,24.92
2022-11-18T06:32:55.965Z,25.35
2022-11-18T06:35:02.403Z,26.18
2022-11-18T06:37:16.711Z,27.41
2022-11-18T06:39:22.571Z,26.58
2022-11-18T06:41:31.725Z,27.33
2022-11-18T06:43:41.998Z,27.38
2022-11-18T06:46:09.374Z,29.89
2022-11-18T06:48:19.547Z,29.71
2022-11-18T06:50:25.213Z,28.60
2022-11-18T06:52:31.198Z,28.80
2022-11-18T06:54:37.728Z,28.42
2022-11-18T06:56:46.097Z,28.21
2022-11-18T06:59:04.967Z,27.67
2022-11-18T07:01:16.404Z,28.32
2022-11-18T07:03:22.095Z,28.17
2022-11-18T07:05:27.803Z,29.08
2022-11-18T07:07:43.197Z,27.55
2022-11-18T07:09:48.930Z,28.03
2022-11-18T07:11:57.261Z,26.58
2022-11-18T07:14:04.141Z,25.93
2022-11-18T07:16:18.888Z,27.36
2022-11-18T07:18:24.616Z,27.01
2022-11-18T07:20:31.255Z,26.48
2022-11-18T07:22:37.014Z,26.20
2022-11-18T07:24:43.562Z,27.96
2022-11-18T07:26:50.074Z,27.34
2022-11-18T07:29:00.290Z,25.12
2022-11-18T07:31:08.623Z,27.96
2022-11-18T07:33:15.111Z,31.22
2022-11-18T07:35:20.874Z,33.41
2022-11-18T07:37:26.839Z,30.97
2022-11-18T07:39:33.452Z,30.19
2022-11-18T07:41:39.548Z,26.20
2022-11-18T07:43:47.285Z,27.53
2022-11-18T07:45:56.454Z,26.02
2022-11-18T07:48:04.965Z,24.43
2022-11-18T07:50:21.514Z,24.66
2022-11-18T07:52:28.887Z,25.97
2022-11-18T07:54:34.737Z,25.70
2022-11-18T07:56:46.991Z,24.09
2022-11-18T07:58:57.024Z,23.70
2022-11-18T08:01:11.695Z,25.72
2022-11-18T08:03:17.460Z,26.16
2022-11-18T08:05:24.045Z,24.57
2022-11-18T08:07:30.021Z,25.35
2022-11-18T08:09:35.828Z,25.83
2022-11-18T08:11:42.321Z,25.48
2022-11-18T08:14:00.803Z,23.46
2022-11-18T08:16:19.462Z,20.70
2022-11-18T08:18:27.411Z,20.64
2022-11-18T08:20:37.688Z,21.05
2022-11-18T08:22:43.552Z,21.62
2022-11-18T08:24:50.383Z,22.34
2022-11-18T08:26:56.205Z,22.43
2022-11-18T08:29:14.518Z,24.02
2022-11-18T08:31:30.778Z,27.18
2022-11-18T08:33:36.540Z,27.77
2022-11-18T08:35:42.254Z,30.63
2022-11-18T08:37:48.833Z,24.04
2022-11-18T08:39:54.504Z,25.85
2022-11-18T08:42:01.999Z,27.67
2022-11-18T08:44:09.943Z,28.32
2022-11-18T08:46:15.731Z,27.15
2022-11-18T08:48:24.050Z,27.01
2022-11-18T08:50:30.591Z,26.38
2022-11-18T08:52:36.887Z,26.20
2022-11-18T08:54:42.750Z,24.30
2022-11-18T08:56:50.723Z,24.46
2022-11-18T08:58:57.399Z,27.13
2022-11-18T09:01:09.204Z,25.59
2022-11-18T09:03:16.160Z,25.93
2022-11-18T09:05:24.547Z,25.81
2022-11-18T09:07:30.359Z,24.54
2022-11-18T09:09:37.067Z,24.15
2022-11-18T09:11:43.424Z,22.76
2022-11-18T09:16:16.873Z,22.12
2022-11-18T09:18:23.860Z,24.35
2022-11-18T09:20:32.203Z,25.72
2022-11-18T09:22:40.380Z,25.81
2022-11-18T09:24:46.184Z,28.15
2022-11-18T09:26:53.802Z,25.29
2022-11-18T09:29:00.307Z,24.80
2022-11-18T09:31:08.264Z,26.69
2022-11-18T09:33:20.610Z,23.63
2022-11-18T09:35:27.490Z,25.97
2022-11-18T09:37:36.756Z,26.50
2022-11-18T09:39:42.603Z,26.53
2022-11-18T09:41:52.519Z,27.85
2022-11-18T09:44:17.187Z,27.35
2022-11-18T09:46:42.086Z,30.18
2022-11-18T09:49:07.495Z,28.86
2022-11-18T09:51:23.190Z,28.27
2022-11-18T09:53:31.948Z,27.05
2022-11-18T09:55:43.957Z,28.60
2022-11-18T09:57:54.175Z,26.99
2022-11-18T10:00:00.704Z,26.10
2022-11-18T10:02:53.748Z,25.78
2022-11-18T10:05:04.587Z,27.46
2022-11-18T10:07:24.894Z,27.22
2022-11-18T10:09:44.030Z,29.87
2022-11-18T10:12:14.664Z,30.12
2022-11-18T10:14:46.394Z,34.59
2022-11-18T10:17:13.100Z,30.04
2022-11-18T10:19:37.242Z,26.57
2022-11-18T10:22:07.150Z,23.82
2022-11-18T10:24:23.718Z,27.52
2022-11-18T10:26:44.654Z,25.48
2022-11-18T10:28:53.860Z,26.22
2022-11-18T10:31:09.984Z,27.08
2022-11-18T10:33:29.644Z,27.58
2022-11-18T10:35:38.777Z,27.04
2022-11-18T10:38:06.810Z,26.90
2022-11-18T10:40:31.128Z,28.70
2022-11-18T10:42:47.333Z,29.65
2022-11-18T10:44:53.940Z,29.39
2022-11-18T10:47:19.641Z,30.93
2022-11-18T10:49:28.178Z,36.09
2022-11-18T10:51:34.691Z,38.91
2022-11-18T10:53:42.623Z,38.82
2022-11-18T10:56:02.021Z,39.70
2022-11-18T10:58:22.238Z,39.64
2022-11-18T11:00:45.762Z,39.91
2022-11-18T11:02:51.586Z,39.34
2022-11-18T11:05:07.153Z,39.80
2022-11-18T11:07:32.151Z,41.12
2022-11-18T11:09:38.012Z,43.87
2022-11-18T11:12:04.969Z,40.83
2022-11-18T11:14:24.801Z,40.58
2022-11-18T11:16:43.802Z,41.10
2022-11-18T11:19:01.276Z,40.63
2022-11-18T11:21:12.264Z,39.21
2022-11-18T11:23:23.663Z,38.75
2022-11-18T11:28:31.933Z,40.38
2022-11-18T11:30:57.224Z,40.13
2022-11-18T11:33:25.015Z,39.81
2022-11-18T11:35:45.756Z,41.42
2022-11-18T11:37:58.980Z,43.21
2022-11-18T11:40:31.984Z,43.36
2022-11-18T11:42:52.168Z,44.57
2022-11-18T11:45:21.982Z,45.74
2022-11-18T11:47:57.131Z,43.64
2022-11-18T11:50:16.763Z,46.23
2022-11-18T11:52:48.408Z,43.03
2022-11-18T11:55:15.578Z,45.30
2022-11-18T11:57:44.088Z,42.74
2022-11-18T12:00:06.335Z,41.21
2022-11-18T12:02:56.872Z,40.50
2022-11-18T12:05:20.927Z,41.37
2022-11-18T12:07:33.816Z,40.77
2022-11-18T12:10:04.757Z,41.71
2022-11-18T12:12:40.333Z,40.05
2022-11-18T12:14:59.583Z,40.11
2022-11-18T12:17:28.399Z,40.99
2022-11-18T12:19:42.801Z,40.69
2022-11-18T12:22:07.237Z,40.01
2022-11-18T12:24:36.757Z,38.44
2022-11-18T12:26:43.976Z,42.00
2022-11-18T12:28:50.236Z,42.33
2022-11-18T12:31:36.397Z,42.62
2022-11-18T12:33:48.381Z,42.61
2022-11-18T12:35:56.874Z,42.81
2022-11-18T12:38:06.148Z,41.54
2022-11-18T12:40:33.659Z,42.43
2022-11-18T12:42:59.420Z,42.87
2022-11-18T12:45:49.674Z,44.53
2022-11-18T12:48:01.974Z,42.76
2022-11-18T12:50:14.173Z,44.11
2022-11-18T12:52:56.422Z,41.84
2022-11-18T12:55:07.816Z,43.48
2022-11-18T12:57:23.712Z,42.44
2022-11-18T12:59:40.021Z,40.36
2022-11-18T13:01:46.759Z,37.91
2022-11-18T13:03:53.060Z,39.07
2022-11-18T13:06:08.707Z,38.99
2022-11-18T13:08:22.157Z,41.10
2022-11-18T13:10:34.931Z,44.21
2022-11-18T13:12:40.988Z,40.03
2022-11-18T13:15:10.165Z,37.38
2022-11-18T13:17:44.757Z,36.78
2022-11-18T13:19:59.614Z,36.13
2022-11-18T13:22:19.250Z,35.74
2022-11-18T13:24:27.806Z,35.14
2022-11-18T13:26:46.268Z,37.07
2022-11-18T13:29:20.755Z,38.94
2022-11-18T13:31:45.795Z,37.74
2022-11-18T13:33:57.642Z,39.75
2022-11-18T13:36:04.401Z,36.37
2022-11-18T13:38:33.344Z,35.49
2022-11-18T13:41:04.711Z,36.72
2022-11-18T13:43:14.895Z,37.87
2022-11-18T13:45:21.256Z,36.64
2022-11-18T13:47:39.964Z,34.65
2022-11-18T13:50:01.865Z,34.89
2022-11-18T13:52:08.317Z,35.37
2022-11-18T13:54:23.688Z,37.15
2022-11-18T13:56:35.316Z,38.00
2022-11-18T13:59:15.805Z,38.44
2022-11-18T14:01:22.010Z,35.39
2022-11-18T14:03:35.531Z,34.02
2022-11-18T14:05:44.309Z,32.70
2022-11-18T14:08:09.232Z,35.07
2022-11-18T14:10:19.319Z,36.49
2022-11-18T14:12:32.745Z,34.57
2022-11-18T14:14:42.334Z,36.12
2022-11-18T14:16:48.100Z,37.81
2022-11-18T14:18:55.456Z,37.75
2022-11-18T14:21:04.632Z,40.22
2022-11-18T14:23:20.883Z,37.88
2022-11-18T14:25:33.359Z,37.74
2022-11-18T14:27:46.486Z,40.88
2022-11-18T14:29:53.408Z,41.35
2022-11-18T14:32:17.937Z,38.25
2022-11-18T14:34:30.146Z,37.49
2022-11-18T14:36:35.972Z,46.80
2022-11-18T14:39:19.405Z,39.74
2022-11-18T14:41:45.096Z,39.09
2022-11-18T14:43:53.653Z,41.03
2022-11-18T14:46:04.959Z,42.53
2022-11-18T14:48:18.787Z,40.85
2022-11-18T14:50:24.580Z,39.15
2022-11-18T14:52:30.291Z,43.19
2022-11-18T14:54:37.124Z,42.79
2022-11-18T14:56:43.020Z,42.14
2022-11-18T14:58:48.719Z,41.99
2022-11-18T15:00:57.991Z,40.85
2022-11-18T15:03:03.901Z,38.04
2022-11-18T15:05:22.352Z,41.14
2022-11-18T15:07:28.958Z,39.34
2022-11-18T15:09:34.732Z,38.80
2022-11-18T15:11:40.421Z,42.70
2022-11-18T15:13:46.969Z,58.88
2022-11-18T15:15:52.721Z,53.04
2022-11-18T15:18:01.147Z,41.88
2022-11-18T15:20:08.866Z,45.10
2022-11-18T15:22:14.633Z,44.73
2022-11-18T15:24:27.218Z,37.54
2022-11-18T15:26:41.651Z,38.67
2022-11-18T15:28:47.430Z,37.62
2022-11-18T15:30:55.973Z,34.42
2022-11-18T15:33:10.979Z,30.69
2022-11-18T15:35:17.327Z,32.20
2022-11-18T15:37:29.553Z,31.13
2022-11-18T15:39:40.158Z,28.96
2022-11-18T15:41:46.576Z,27.36
2022-11-18T15:43:53.843Z,25.83
2022-11-18T15:46:03.997Z,27.97
2022-11-18T15:48:13.267Z,30.15
2022-11-18T15:50:19.994Z,33.27
2022-11-18T15:52:27.422Z,30.74
2022-11-18T15:54:33.273Z,33.49
2022-11-18T15:56:40.130Z,35.56
2022-11-18T15:58:46.704Z,32.96
2022-11-18T16:00:52.456Z,32.71
2022-11-18T16:03:28.839Z,37.05
2022-11-18T16:05:35.511Z,35.82
2022-11-18T16:07:41.308Z,37.26
2022-11-18T16:10:04.988Z,47.25
2022-11-18T16:12:24.782Z,45.11
2022-11-18T16:14:30.614Z,35.80
2022-11-18T16:16:38.131Z,36.67
2022-11-18T16:18:51.830Z,34.98
2022-11-18T16:21:07.560Z,31.90
2022-11-18T16:23:15.533Z,32.48
2022-11-18T16:25:22.144Z,30.90
2022-11-18T16:27:31.887Z,30.14
2022-11-18T16:29:43.916Z,30.13
2022-11-18T16:31:54.865Z,30.81
2022-11-18T16:34:20.126Z,34.40
2022-11-18T16:36:29.603Z,35.41
2022-11-18T16:38:36.215Z,36.20
2022-11-18T16:40:42.083Z,34.95
2022-11-18T16:42:50.825Z,33.44
2022-11-18T16:44:57.333Z,33.86
2022-11-18T16:47:05.321Z,34.40
2022-11-18T16:49:21.398Z,36.69
2022-11-18T16:51:31.035Z,35.62
2022-11-18T16:53:36.801Z,34.71
2022-11-18T16:55:42.572Z,35.88
2022-11-18T16:57:49.068Z,37.11
2022-11-18T16:59:55.868Z,39.01
2022-11-18T17:02:03.989Z,40.62
2022-11-18T17:04:11.873Z,42.30
2022-11-18T17:06:20.137Z,36.75
2022-11-18T17:08:27.102Z,33.47
2022-11-18T17:10:33.603Z,34.20
2022-11-18T17:12:39.328Z,35.63
2022-11-18T17:14:52.239Z,35.87
2022-11-18T17:17:01.452Z,41.10
2022-11-18T17:19:11.816Z,34.16
2022-11-18T17:21:22.229Z,32.68
2022-11-18T17:23:31.335Z,33.47
2022-11-18T17:25:40.818Z,33.91
2022-11-18T17:27:46.695Z,37.62
2022-11-18T17:29:53.599Z,37.45
2022-11-18T17:31:59.932Z,42.96
2022-11-18T17:34:05.852Z,43.34
2022-11-18T17:36:15.338Z,44.16
2022-11-18T17:38:23.621Z,46.16
2022-11-18T17:40:29.336Z,47.21
2022-11-18T17:42:35.988Z,43.50
2022-11-18T17:44:41.943Z,47.87
2022-11-18T17:46:51.287Z,51.88
2022-11-18T17:49:00.623Z,52.26
2022-11-18T17:51:09.990Z,48.64
2022-11-18T17:53:17.406Z,59.34
2022-11-18T17:55:26.950Z,47.46
2022-11-18T17:57:32.688Z,47.94
2022-11-18T17:59:38.603Z,50.65
2022-11-18T18:01:45.368Z,44.62
2022-11-18T18:03:51.930Z,45.55
2022-11-18T18:06:04.911Z,48.55
2022-11-18T18:08:16.798Z,48.44
2022-11-18T18:10:27.072Z,45.04
2022-11-18T18:12:45.383Z,39.25
2022-11-18T18:14:52.075Z,40.36
2022-11-18T18:16:57.874Z,40.38
2022-11-18T18:19:07.716Z,42.35
2022-11-18T18:21:14.347Z,40.95
2022-11-18T18:23:20.196Z,41.64
2022-11-18T18:25:28.581Z,39.34
2022-11-18T18:27:35.252Z,37.39
2022-11-18T18:29:41.095Z,34.54
2022-11-18T18:31:47.047Z,38.06
2022-11-18T18:33:53.700Z,39.96
2022-11-18T18:36:00.149Z,42.29
2022-11-18T18:38:05.822Z,41.85
2022-11-18T18:40:15.076Z,39.01
2022-11-18T18:42:23.935Z,37.04
2022-11-18T18:44:49.645Z,38.36
2022-11-18T18:46:53.663Z,39.84
2022-11-18T18:49:03.014Z,41.83
2022-11-18T18:51:10.228Z,42.30
2022-11-18T18:53:16.856Z,42.12
2022-11-18T18:55:23.352Z,42.50
2022-11-18T18:57:32.380Z,40.06
2022-11-18T18:59:39.102Z,43.30
2022-11-18T19:01:45.370Z,42.24
2022-11-18T19:03:56.235Z,40.53
2022-11-18T19:06:27.746Z,40.34
2022-11-18T19:08:28.805Z,36.29
2022-11-18T19:10:34.595Z,38.89
2022-11-18T19:12:44.361Z,38.31
2022-11-18T19:14:50.545Z,38.72
2022-11-18T19:16:58.104Z,37.21
2022-11-18T19:19:06.084Z,32.60
2022-11-18T19:21:11.378Z,35.59
2022-11-18T19:23:17.720Z,38.27
2022-11-18T19:25:24.362Z,36.10
2022-11-18T19:27:30.362Z,35.08
2022-11-18T19:29:38.794Z,33.84
2022-11-18T19:31:45.401Z,36.79
2022-11-18T19:33:52.039Z,36.62
2022-11-18T19:35:58.002Z,40.00
2022-11-18T19:38:04.760Z,35.33
2022-11-18T19:40:13.309Z,29.53
2022-11-18T19:42:19.054Z,28.85
2022-11-18T19:44:25.802Z,29.02
2022-11-18T19:46:34.333Z,29.14
2022-11-18T19:48:40.126Z,25.28
2022-11-18T19:50:46.872Z,25.78
2022-11-18T19:52:52.656Z,26.70
2022-11-18T19:54:58.503Z,25.44
2022-11-18T19:57:05.918Z,25.22
2022-11-18T19:59:11.828Z,24.69
2022-11-18T20:01:22.977Z,25.21
2022-11-18T20:03:34.130Z,26.93
2022-11-18T20:05:52.278Z,27.87
2022-11-18T20:07:58.782Z,28.99
2022-11-18T20:10:06.849Z,28.27
2022-11-18T20:12:12.666Z,28.93
2022-11-18T20:14:18.350Z,29.24
2022-11-18T20:16:28.309Z,28.96
2022-11-18T20:18:38.390Z,25.86
2022-11-18T20:20:44.226Z,27.38
2022-11-18T20:22:50.884Z,29.39
2022-11-18T20:24:57.094Z,28.74
2022-11-18T20:27:02.968Z,26.33
2022-11-18T20:29:10.981Z,25.08
2022-11-18T20:31:19.778Z,24.54
2022-11-18T20:33:25.539Z,24.54
2022-11-18T20:35:35.151Z,24.35
2022-11-18T20:37:42.689Z,25.15
2022-11-18T20:39:48.441Z,24.52
2022-11-18T20:42:07.293Z,24.00
2022-11-18T20:44:13.091Z,24.25
2022-11-18T20:46:22.655Z,23.57
2022-11-18T20:48:29.524Z,23.47
2022-11-18T20:50:40.545Z,23.94
2022-11-18T20:52:46.317Z,22.83
2022-11-18T20:54:52.855Z,23.47
2022-11-18T20:56:58.688Z,23.37
2022-11-18T20:59:04.416Z,22.08
2022-11-18T21:01:13.428Z,21.84
2022-11-18T21:03:21.364Z,23.04
2022-11-18T21:05:27.625Z,24.06
2022-11-18T21:07:38.165Z,24.88
2022-11-18T21:09:43.922Z,23.85
2022-11-18T21:11:49.685Z,24.87
2022-11-18T21:14:09.373Z,25.01
2022-11-18T21:16:15.176Z,25.03
2022-11-18T21:18:20.920Z,24.03
2022-11-18T21:20:39.944Z,22.53
2022-11-18T21:22:48.414Z,23.28
2022-11-18T21:24:54.184Z,23.66
2022-11-18T21:27:03.176Z,24.90
2022-11-18T21:29:12.502Z,26.57
2022-11-18T21:31:23.237Z,27.59
2022-11-18T21:33:30.040Z,24.03
2022-11-18T21:35:38.956Z,24.44
2022-11-18T21:37:47.304Z,24.14
2022-11-18T21:39:53.838Z,24.52
2022-11-18T21:41:59.611Z,23.11
2022-11-18T21:44:06.729Z,22.97
2022-11-18T21:46:17.493Z,23.59
2022-11-18T21:48:23.160Z,23.72
2022-11-18T21:50:28.906Z,23.03
2022-11-18T21:52:35.387Z,21.10
2022-11-18T21:54:43.693Z,22.49
2022-11-18T21:56:49.554Z,21.53
2022-11-18T21:58:56.169Z,21.34
2022-11-18T22:01:10.693Z,21.96
2022-11-18T22:03:16.577Z,21.07
2022-11-18T22:05:23.130Z,21.04
2022-11-18T22:07:29.237Z,20.73
2022-11-18T22:09:36.950Z,22.71
2022-11-18T22:11:46.329Z,21.73
2022-11-18T22:13:54.122Z,21.64
2022-11-18T22:16:03.915Z,22.60
2022-11-18T22:18:10.572Z,23.19
2022-11-18T22:20:16.795Z,22.26
2022-11-18T22:22:22.466Z,22.86
2022-11-18T22:24:29.270Z,23.17
2022-11-18T22:26:35.003Z,21.85
2022-11-18T22:28:43.533Z,22.29
2022-11-18T22:30:50.109Z,22.86
2022-11-18T22:32:55.883Z,22.76
2022-11-18T22:35:01.644Z,24.20
2022-11-18T22:37:08.740Z,25.57
2022-11-18T22:39:14.498Z,25.34
2022-11-18T22:41:35.386Z,26.05
2022-11-18T22:43:44.543Z,26.74
2022-11-18T22:45:50.234Z,26.68
2022-11-18T22:47:56.040Z,28.03
2022-11-18T22:50:02.626Z,28.68
2022-11-18T22:52:08.815Z,27.17
2022-11-18T22:56:41.308Z,27.95
2022-11-18T22:58:50.148Z,28.96
2022-11-18T23:00:55.850Z,30.42
2022-11-18T23:03:02.413Z,31.29
2022-11-18T23:05:10.877Z,30.37
2022-11-18T23:07:16.817Z,29.29
2022-11-18T23:09:23.409Z,28.87
2022-11-18T23:11:41.581Z,30.12
2022-11-18T23:14:07.224Z,31.30
2022-11-18T23:16:13.914Z,30.89
2022-11-18T23:18:19.664Z,28.56
2022-11-18T23:20:25.323Z,29.04
2022-11-18T23:22:31.942Z,28.00
2022-11-18T23:24:39.179Z,28.19
2022-11-18T23:26:45.700Z,29.46
2022-11-18T23:28:55.872Z,28.38
2022-11-18T23:31:08.290Z,30.94
2022-11-18T23:33:14.045Z,29.90
2022-11-18T23:35:20.613Z,28.27
2022-11-18T23:37:26.266Z,28.84
2022-11-18T23:39:31.986Z,27.28
2022-11-18T23:41:38.837Z,27.83
2022-11-18T23:43:47.025Z,28.11
2022-11-18T23:45:56.351Z,27.26
2022-11-18T23:48:02.938Z,28.16
2022-11-18T23:50:10.142Z,26.12
2022-11-18T23:52:16.272Z,27.01
2022-11-18T23:54:22.815Z,27.52
2022-11-18T23:56:35.096Z,27.85
2022-11-18T23:58:47.832Z,29.19
